Hovedside
METAR-TAF:

METAR-TAF

Lufthavner :

Jaroslavl, Russland

breddegrad: 57-33-38N, lengdegrad: 040-09-27E, høyde over havet: 87 m

Gjeldene værobservasjon

Denne rapporten ble laget for 39 minutter siden, klokken 04:00 UTC
Vind 8 kt fra Øst-nordøst
Temperatur 19°C
Luftfuktighet 88%
Trykk 1011 hPa
Sikt 10 km eller mer
ingen skyer under 1500 m og ingen bygeskyer

METAR: UUDL 220400Z 07004MPS CAVOK 19/17 Q1011 R23/150060 NOSIG RMK QFE750

Tid: 07:39 (04:39 UTC)

Varsel

Denne rapporten ble laget for 2 timer og 44 minutter siden, klokken 01:55 UTC
Varsel gyldig fra 22. klokken 03 UTC til 23. klokken 03 UTC
Vind 6 kt fra Øst-nordøst
Sikt 10 km eller mer
Brutte skyer i en høyde av 4000 ft

TAF: UUDL 220155Z 2203/2303 07003MPS 9999 BKN040 TX24/2212Z TN13/2301Z

Værobservasjoner og værvarsel for over 4000 flyplasser (METAR- og TAF-rapporter).

Tilgjengelige stasjoner er representert av de røde og gule prikkene på kartet.

Hold musepekeren over prikken for å se navnet på stasjonen.

Klikk så for å se værobservasjoner og -varsler.

For å forandre kartet kan du klikke på den grønne knappen med svart kryss for å zoome inn, på den grønne knappen med strek for å zoome ut, eller på de grønne pilene for å se tilstøtende kart.


METAR-TAF: